sensor_id;sensor_type;location;lat;lon;timestamp;P1;durP1;ratioP1;P2;durP2;ratioP2
70148;SDS011;57514;52.164;5.282;2022-09-30T00:01:55;8.32;;;2.90;;
70148;SDS011;57514;52.164;5.282;2022-09-30T00:04:23;7.22;;;2.85;;
70148;SDS011;57514;52.164;5.282;2022-09-30T00:06:51;6.70;;;3.03;;
70148;SDS011;57514;52.164;5.282;2022-09-30T00:09:19;5.88;;;2.50;;
70148;SDS011;57514;52.164;5.282;2022-09-30T00:11:49;7.68;;;2.80;;
70148;SDS011;57514;52.164;5.282;2022-09-30T00:14:17;6.25;;;2.80;;
70148;SDS011;57514;52.164;5.282;2022-09-30T00:16:45;10.30;;;3.42;;
70148;SDS011;57514;52.164;5.282;2022-09-30T00:19:13;7.07;;;2.95;;
70148;SDS011;57514;52.164;5.282;2022-09-30T00:21:41;7.43;;;3.25;;
70148;SDS011;57514;52.164;5.282;2022-09-30T00:24:09;6.70;;;3.20;;
70148;SDS011;57514;52.164;5.282;2022-09-30T00:26:37;6.15;;;2.80;;
70148;SDS011;57514;52.164;5.282;2022-09-30T00:29:04;6.00;;;2.80;;
70148;SDS011;57514;52.164;5.282;2022-09-30T00:31:32;6.53;;;2.63;;
70148;SDS011;57514;52.164;5.282;2022-09-30T00:33:59;5.68;;;2.58;;
70148;SDS011;57514;52.164;5.282;2022-09-30T00:39:00;5.88;;;3.03;;
70148;SDS011;57514;52.164;5.282;2022-09-30T00:41:27;8.50;;;3.38;;
70148;SDS011;57514;52.164;5.282;2022-09-30T00:43:54;8.07;;;3.08;;
70148;SDS011;57514;52.164;5.282;2022-09-30T00:46:33;10.35;;;3.33;;
70148;SDS011;57514;52.164;5.282;2022-09-30T00:49:18;9.85;;;3.20;;
70148;SDS011;57514;52.164;5.282;2022-09-30T00:51:49;9.02;;;3.38;;
70148;SDS011;57514;52.164;5.282;2022-09-30T00:54:20;8.30;;;3.25;;
70148;SDS011;57514;52.164;5.282;2022-09-30T00:56:49;8.43;;;3.33;;
70148;SDS011;57514;52.164;5.282;2022-09-30T00:59:22;7.43;;;2.95;;
70148;SDS011;57514;52.164;5.282;2022-09-30T01:01:54;9.05;;;3.13;;
70148;SDS011;57514;52.164;5.282;2022-09-30T01:04:22;8.20;;;3.10;;
70148;SDS011;57514;52.164;5.282;2022-09-30T01:06:50;8.30;;;2.97;;
70148;SDS011;57514;52.164;5.282;2022-09-30T01:09:17;8.77;;;3.13;;
70148;SDS011;57514;52.164;5.282;2022-09-30T01:11:45;6.80;;;3.35;;
70148;SDS011;57514;52.164;5.282;2022-09-30T01:14:19;6.97;;;2.78;;
70148;SDS011;57514;52.164;5.282;2022-09-30T01:27:19;6.95;;;2.83;;
70148;SDS011;57514;52.164;5.282;2022-09-30T01:30:00;8.02;;;3.40;;
70148;SDS011;57514;52.164;5.282;2022-09-30T01:37:44;5.97;;;2.63;;
70148;SDS011;57514;52.164;5.282;2022-09-30T01:40:22;8.23;;;3.40;;
70148;SDS011;57514;52.164;5.282;2022-09-30T01:42:53;8.85;;;3.85;;
70148;SDS011;57514;52.164;5.282;2022-09-30T01:45:42;8.50;;;3.38;;
70148;SDS011;57514;52.164;5.282;2022-09-30T01:50:46;7.10;;;3.60;;
70148;SDS011;57514;52.164;5.282;2022-09-30T01:53:16;8.50;;;3.38;;
70148;SDS011;57514;52.164;5.282;2022-09-30T02:01:09;8.85;;;3.90;;
70148;SDS011;57514;52.164;5.282;2022-09-30T02:03:41;9.65;;;3.78;;
70148;SDS011;57514;52.164;5.282;2022-09-30T02:06:11;8.48;;;3.35;;
70148;SDS011;57514;52.164;5.282;2022-09-30T02:08:43;9.02;;;3.88;;
70148;SDS011;57514;52.164;5.282;2022-09-30T02:13:43;9.38;;;4.38;;
70148;SDS011;57514;52.164;5.282;2022-09-30T02:16:13;9.15;;;3.92;;
70148;SDS011;57514;52.164;5.282;2022-09-30T02:18:52;9.48;;;4.25;;
70148;SDS011;57514;52.164;5.282;2022-09-30T02:21:24;10.32;;;4.43;;
70148;SDS011;57514;52.164;5.282;2022-09-30T02:23:53;8.82;;;3.90;;
70148;SDS011;57514;52.164;5.282;2022-09-30T02:26:23;8.55;;;4.07;;
70148;SDS011;57514;52.164;5.282;2022-09-30T02:28:53;9.70;;;4.10;;
70148;SDS011;57514;52.164;5.282;2022-09-30T02:31:23;9.52;;;3.53;;
70148;SDS011;57514;52.164;5.282;2022-09-30T02:39:42;8.90;;;3.38;;
70148;SDS011;57514;52.164;5.282;2022-09-30T02:42:11;10.82;;;3.90;;
70148;SDS011;57514;52.164;5.282;2022-09-30T02:44:39;9.35;;;4.43;;
70148;SDS011;57514;52.164;5.282;2022-09-30T02:55:13;10.55;;;4.03;;
70148;SDS011;57514;52.164;5.282;2022-09-30T02:57:47;9.90;;;4.28;;
70148;SDS011;57514;52.164;5.282;2022-09-30T03:00:20;12.27;;;3.97;;
70148;SDS011;57514;52.164;5.282;2022-09-30T03:02:47;10.40;;;4.15;;
70148;SDS011;57514;52.164;5.282;2022-09-30T03:05:15;7.88;;;3.67;;
70148;SDS011;57514;52.164;5.282;2022-09-30T03:07:42;10.05;;;4.00;;
70148;SDS011;57514;52.164;5.282;2022-09-30T03:10:13;9.02;;;4.10;;
70148;SDS011;57514;52.164;5.282;2022-09-30T03:12:58;9.43;;;4.22;;
70148;SDS011;57514;52.164;5.282;2022-09-30T03:15:38;12.02;;;4.07;;
70148;SDS011;57514;52.164;5.282;2022-09-30T03:26:07;10.00;;;4.18;;
70148;SDS011;57514;52.164;5.282;2022-09-30T03:28:42;10.90;;;4.32;;
70148;SDS011;57514;52.164;5.282;2022-09-30T03:36:40;10.55;;;4.47;;
70148;SDS011;57514;52.164;5.282;2022-09-30T03:44:40;10.02;;;4.20;;
70148;SDS011;57514;52.164;5.282;2022-09-30T03:47:08;10.13;;;4.15;;
70148;SDS011;57514;52.164;5.282;2022-09-30T03:49:38;9.88;;;3.95;;
70148;SDS011;57514;52.164;5.282;2022-09-30T03:52:09;9.48;;;3.67;;
70148;SDS011;57514;52.164;5.282;2022-09-30T03:54:47;8.77;;;3.42;;
70148;SDS011;57514;52.164;5.282;2022-09-30T03:57:15;9.85;;;3.90;;
70148;SDS011;57514;52.164;5.282;2022-09-30T03:59:43;7.70;;;3.63;;
70148;SDS011;57514;52.164;5.282;2022-09-30T04:02:38;8.32;;;3.65;;
70148;SDS011;57514;52.164;5.282;2022-09-30T04:05:05;14.90;;;4.30;;
70148;SDS011;57514;52.164;5.282;2022-09-30T04:07:33;10.20;;;3.83;;
70148;SDS011;57514;52.164;5.282;2022-09-30T04:10:00;10.32;;;4.15;;
70148;SDS011;57514;52.164;5.282;2022-09-30T04:12:27;11.23;;;3.97;;
70148;SDS011;57514;52.164;5.282;2022-09-30T04:14:54;10.75;;;4.20;;
70148;SDS011;57514;52.164;5.282;2022-09-30T04:17:21;9.43;;;4.07;;
70148;SDS011;57514;52.164;5.282;2022-09-30T04:19:49;10.52;;;4.10;;
70148;SDS011;57514;52.164;5.282;2022-09-30T04:22:16;9.85;;;4.57;;
70148;SDS011;57514;52.164;5.282;2022-09-30T04:24:43;10.15;;;4.55;;
70148;SDS011;57514;52.164;5.282;2022-09-30T04:27:10;8.20;;;4.00;;
70148;SDS011;57514;52.164;5.282;2022-09-30T04:29:37;10.85;;;4.20;;
70148;SDS011;57514;52.164;5.282;2022-09-30T04:32:04;11.32;;;4.53;;
70148;SDS011;57514;52.164;5.282;2022-09-30T04:34:32;9.95;;;4.50;;
70148;SDS011;57514;52.164;5.282;2022-09-30T04:36:59;9.68;;;4.38;;
70148;SDS011;57514;52.164;5.282;2022-09-30T04:39:26;10.52;;;4.22;;
70148;SDS011;57514;52.164;5.282;2022-09-30T04:41:55;9.38;;;4.03;;
70148;SDS011;57514;52.164;5.282;2022-09-30T04:44:24;9.25;;;4.40;;
70148;SDS011;57514;52.164;5.282;2022-09-30T04:46:51;8.35;;;3.67;;
70148;SDS011;57514;52.164;5.282;2022-09-30T04:49:18;12.68;;;4.78;;
70148;SDS011;57514;52.164;5.282;2022-09-30T04:51:45;10.27;;;4.47;;
70148;SDS011;57514;52.164;5.282;2022-09-30T04:54:13;10.23;;;4.32;;
70148;SDS011;57514;52.164;5.282;2022-09-30T04:56:41;11.00;;;4.78;;
70148;SDS011;57514;52.164;5.282;2022-09-30T04:59:08;9.80;;;4.30;;
70148;SDS011;57514;52.164;5.282;2022-09-30T05:01:36;8.38;;;3.95;;
70148;SDS011;57514;52.164;5.282;2022-09-30T05:04:04;10.30;;;5.05;;
70148;SDS011;57514;52.164;5.282;2022-09-30T05:06:31;10.05;;;4.47;;
70148;SDS011;57514;52.164;5.282;2022-09-30T05:08:58;8.50;;;4.13;;
70148;SDS011;57514;52.164;5.282;2022-09-30T05:11:26;9.35;;;4.63;;
70148;SDS011;57514;52.164;5.282;2022-09-30T05:13:53;13.77;;;5.85;;
70148;SDS011;57514;52.164;5.282;2022-09-30T05:16:20;12.60;;;4.82;;
70148;SDS011;57514;52.164;5.282;2022-09-30T05:18:47;11.52;;;4.82;;
70148;SDS011;57514;52.164;5.282;2022-09-30T05:21:16;11.80;;;5.05;;
70148;SDS011;57514;52.164;5.282;2022-09-30T05:23:45;10.38;;;4.78;;
70148;SDS011;57514;52.164;5.282;2022-09-30T05:26:12;12.32;;;4.78;;
70148;SDS011;57514;52.164;5.282;2022-09-30T05:28:40;10.90;;;5.32;;
70148;SDS011;57514;52.164;5.282;2022-09-30T05:31:07;11.02;;;4.65;;
70148;SDS011;57514;52.164;5.282;2022-09-30T05:33:35;10.40;;;5.20;;
70148;SDS011;57514;52.164;5.282;2022-09-30T05:36:03;9.98;;;4.93;;
70148;SDS011;57514;52.164;5.282;2022-09-30T05:38:30;14.48;;;5.18;;
70148;SDS011;57514;52.164;5.282;2022-09-30T05:40:57;9.27;;;4.93;;
70148;SDS011;57514;52.164;5.282;2022-09-30T05:43:25;9.30;;;4.22;;
70148;SDS011;57514;52.164;5.282;2022-09-30T05:45:53;9.63;;;4.35;;
70148;SDS011;57514;52.164;5.282;2022-09-30T05:48:21;11.18;;;4.35;;
70148;SDS011;57514;52.164;5.282;2022-09-30T05:50:48;11.10;;;4.80;;
70148;SDS011;57514;52.164;5.282;2022-09-30T05:53:22;13.73;;;5.70;;
70148;SDS011;57514;52.164;5.282;2022-09-30T05:55:50;10.23;;;4.88;;
70148;SDS011;57514;52.164;5.282;2022-09-30T05:58:17;12.48;;;5.53;;
70148;SDS011;57514;52.164;5.282;2022-09-30T06:00:45;12.25;;;4.78;;
70148;SDS011;57514;52.164;5.282;2022-09-30T06:03:13;12.13;;;5.80;;
70148;SDS011;57514;52.164;5.282;2022-09-30T06:05:40;15.00;;;5.70;;
70148;SDS011;57514;52.164;5.282;2022-09-30T06:08:07;10.18;;;4.80;;
70148;SDS011;57514;52.164;5.282;2022-09-30T06:10:34;11.38;;;4.72;;
70148;SDS011;57514;52.164;5.282;2022-09-30T06:13:02;11.85;;;5.28;;
70148;SDS011;57514;52.164;5.282;2022-09-30T06:15:30;9.93;;;4.47;;
70148;SDS011;57514;52.164;5.282;2022-09-30T06:17:57;11.80;;;5.35;;
70148;SDS011;57514;52.164;5.282;2022-09-30T06:20:25;13.63;;;5.13;;
70148;SDS011;57514;52.164;5.282;2022-09-30T06:22:52;13.20;;;4.63;;
70148;SDS011;57514;52.164;5.282;2022-09-30T06:25:19;11.50;;;5.40;;
70148;SDS011;57514;52.164;5.282;2022-09-30T06:27:47;13.57;;;5.00;;
70148;SDS011;57514;52.164;5.282;2022-09-30T06:30:15;12.95;;;5.32;;
70148;SDS011;57514;52.164;5.282;2022-09-30T06:32:42;14.45;;;5.38;;
70148;SDS011;57514;52.164;5.282;2022-09-30T06:35:10;12.07;;;5.28;;
70148;SDS011;57514;52.164;5.282;2022-09-30T06:37:37;14.98;;;5.75;;
70148;SDS011;57514;52.164;5.282;2022-09-30T06:40:04;13.90;;;5.18;;
70148;SDS011;57514;52.164;5.282;2022-09-30T06:42:32;12.55;;;5.40;;
70148;SDS011;57514;52.164;5.282;2022-09-30T06:45:00;14.60;;;5.97;;
70148;SDS011;57514;52.164;5.282;2022-09-30T06:47:27;14.65;;;7.40;;
70148;SDS011;57514;52.164;5.282;2022-09-30T06:49:54;12.82;;;6.97;;
70148;SDS011;57514;52.164;5.282;2022-09-30T06:52:25;15.88;;;8.20;;
70148;SDS011;57514;52.164;5.282;2022-09-30T06:54:54;16.38;;;8.13;;
70148;SDS011;57514;52.164;5.282;2022-09-30T06:57:22;17.02;;;9.20;;
70148;SDS011;57514;52.164;5.282;2022-09-30T06:59:51;18.13;;;9.90;;
70148;SDS011;57514;52.164;5.282;2022-09-30T07:02:20;17.88;;;10.48;;
70148;SDS011;57514;52.164;5.282;2022-09-30T07:04:47;16.63;;;9.13;;
70148;SDS011;57514;52.164;5.282;2022-09-30T07:07:15;15.88;;;9.27;;
70148;SDS011;57514;52.164;5.282;2022-09-30T07:09:47;16.02;;;10.25;;
70148;SDS011;57514;52.164;5.282;2022-09-30T07:12:14;16.23;;;9.75;;
70148;SDS011;57514;52.164;5.282;2022-09-30T07:14:43;15.88;;;9.32;;
70148;SDS011;57514;52.164;5.282;2022-09-30T07:17:11;15.60;;;9.65;;
70148;SDS011;57514;52.164;5.282;2022-09-30T07:19:41;16.92;;;10.00;;
70148;SDS011;57514;52.164;5.282;2022-09-30T07:22:08;18.23;;;10.43;;
70148;SDS011;57514;52.164;5.282;2022-09-30T07:24:55;16.85;;;9.98;;
70148;SDS011;57514;52.164;5.282;2022-09-30T07:27:26;16.77;;;9.75;;
70148;SDS011;57514;52.164;5.282;2022-09-30T07:29:54;17.92;;;10.60;;
70148;SDS011;57514;52.164;5.282;2022-09-30T07:35:03;21.63;;;11.82;;
70148;SDS011;57514;52.164;5.282;2022-09-30T07:37:31;19.88;;;12.18;;
70148;SDS011;57514;52.164;5.282;2022-09-30T07:40:04;20.77;;;11.93;;
70148;SDS011;57514;52.164;5.282;2022-09-30T07:42:35;20.55;;;12.32;;
70148;SDS011;57514;52.164;5.282;2022-09-30T07:45:04;22.38;;;13.55;;
70148;SDS011;57514;52.164;5.282;2022-09-30T07:47:32;19.48;;;11.32;;
70148;SDS011;57514;52.164;5.282;2022-09-30T07:49:58;17.90;;;11.35;;
70148;SDS011;57514;52.164;5.282;2022-09-30T07:52:26;18.88;;;11.60;;
70148;SDS011;57514;52.164;5.282;2022-09-30T07:57:24;17.95;;;11.27;;
70148;SDS011;57514;52.164;5.282;2022-09-30T07:59:51;16.77;;;11.40;;
70148;SDS011;57514;52.164;5.282;2022-09-30T08:02:18;18.23;;;10.52;;
70148;SDS011;57514;52.164;5.282;2022-09-30T08:04:45;14.98;;;10.32;;
70148;SDS011;57514;52.164;5.282;2022-09-30T08:07:13;16.42;;;10.75;;
70148;SDS011;57514;52.164;5.282;2022-09-30T08:09:41;16.33;;;10.23;;
70148;SDS011;57514;52.164;5.282;2022-09-30T08:12:08;16.63;;;10.57;;
70148;SDS011;57514;52.164;5.282;2022-09-30T08:14:46;16.90;;;10.35;;
70148;SDS011;57514;52.164;5.282;2022-09-30T08:17:13;15.63;;;10.07;;
70148;SDS011;57514;52.164;5.282;2022-09-30T08:19:40;16.65;;;9.43;;
70148;SDS011;57514;52.164;5.282;2022-09-30T08:22:10;16.45;;;10.13;;
70148;SDS011;57514;52.164;5.282;2022-09-30T08:24:41;14.35;;;9.73;;
70148;SDS011;57514;52.164;5.282;2022-09-30T08:27:08;14.60;;;8.82;;
70148;SDS011;57514;52.164;5.282;2022-09-30T08:29:35;13.70;;;8.85;;
70148;SDS011;57514;52.164;5.282;2022-09-30T08:32:21;14.02;;;9.10;;
70148;SDS011;57514;52.164;5.282;2022-09-30T08:34:48;13.18;;;8.77;;
70148;SDS011;57514;52.164;5.282;2022-09-30T08:37:16;12.57;;;8.73;;
70148;SDS011;57514;52.164;5.282;2022-09-30T08:39:44;14.60;;;8.98;;
70148;SDS011;57514;52.164;5.282;2022-09-30T08:42:19;13.00;;;8.52;;
70148;SDS011;57514;52.164;5.282;2022-09-30T08:47:52;13.95;;;8.63;;
70148;SDS011;57514;52.164;5.282;2022-09-30T08:52:51;11.82;;;6.75;;
70148;SDS011;57514;52.164;5.282;2022-09-30T08:55:28;10.30;;;6.40;;
70148;SDS011;57514;52.164;5.282;2022-09-30T08:58:16;11.88;;;6.85;;
70148;SDS011;57514;52.164;5.282;2022-09-30T09:00:53;15.20;;;7.93;;
70148;SDS011;57514;52.164;5.282;2022-09-30T09:03:26;12.63;;;6.97;;
70148;SDS011;57514;52.164;5.282;2022-09-30T09:08:57;11.40;;;6.85;;
70148;SDS011;57514;52.164;5.282;2022-09-30T09:17:22;11.80;;;6.75;;
70148;SDS011;57514;52.164;5.282;2022-09-30T09:24:57;13.85;;;7.90;;
70148;SDS011;57514;52.164;5.282;2022-09-30T09:27:40;12.52;;;7.63;;
70148;SDS011;57514;52.164;5.282;2022-09-30T09:30:16;12.02;;;7.32;;
70148;SDS011;57514;52.164;5.282;2022-09-30T09:32:51;11.90;;;7.22;;
70148;SDS011;57514;52.164;5.282;2022-09-30T09:35:38;13.95;;;7.80;;
70148;SDS011;57514;52.164;5.282;2022-09-30T09:38:18;11.60;;;6.63;;
70148;SDS011;57514;52.164;5.282;2022-09-30T09:44:05;12.52;;;6.93;;
70148;SDS011;57514;52.164;5.282;2022-09-30T09:46:47;11.77;;;7.03;;
70148;SDS011;57514;52.164;5.282;2022-09-30T09:49:36;12.40;;;7.35;;
70148;SDS011;57514;52.164;5.282;2022-09-30T09:54:41;10.07;;;6.38;;
70148;SDS011;57514;52.164;5.282;2022-09-30T09:57:13;10.38;;;6.28;;
70148;SDS011;57514;52.164;5.282;2022-09-30T10:03:00;9.30;;;5.30;;
70148;SDS011;57514;52.164;5.282;2022-09-30T10:05:36;6.43;;;3.47;;
70148;SDS011;57514;52.164;5.282;2022-09-30T10:08:16;7.65;;;3.90;;
70148;SDS011;57514;52.164;5.282;2022-09-30T10:10:49;9.77;;;4.15;;
70148;SDS011;57514;52.164;5.282;2022-09-30T10:13:25;8.43;;;3.60;;
70148;SDS011;57514;52.164;5.282;2022-09-30T10:15:55;8.10;;;3.92;;
70148;SDS011;57514;52.164;5.282;2022-09-30T10:18:28;6.25;;;3.25;;
70148;SDS011;57514;52.164;5.282;2022-09-30T10:21:06;7.95;;;3.70;;
70148;SDS011;57514;52.164;5.282;2022-09-30T10:23:51;7.15;;;3.03;;
70148;SDS011;57514;52.164;5.282;2022-09-30T10:26:19;5.88;;;3.10;;
70148;SDS011;57514;52.164;5.282;2022-09-30T10:28:54;6.80;;;3.35;;
70148;SDS011;57514;52.164;5.282;2022-09-30T10:36:31;5.70;;;3.22;;
70148;SDS011;57514;52.164;5.282;2022-09-30T10:39:01;6.40;;;3.22;;
70148;SDS011;57514;52.164;5.282;2022-09-30T10:41:35;6.72;;;2.90;;
70148;SDS011;57514;52.164;5.282;2022-09-30T10:44:11;6.32;;;3.00;;
70148;SDS011;57514;52.164;5.282;2022-09-30T10:46:42;6.22;;;3.42;;
70148;SDS011;57514;52.164;5.282;2022-09-30T10:49:25;8.40;;;3.30;;
70148;SDS011;57514;52.164;5.282;2022-09-30T10:52:05;5.68;;;2.67;;
70148;SDS011;57514;52.164;5.282;2022-09-30T11:08:23;5.63;;;2.35;;
70148;SDS011;57514;52.164;5.282;2022-09-30T11:13:45;4.55;;;2.30;;
70148;SDS011;57514;52.164;5.282;2022-09-30T11:16:24;4.28;;;1.98;;
70148;SDS011;57514;52.164;5.282;2022-09-30T11:21:56;5.00;;;2.13;;
70148;SDS011;57514;52.164;5.282;2022-09-30T11:27:05;3.50;;;1.95;;
70148;SDS011;57514;52.164;5.282;2022-09-30T11:29:44;4.20;;;1.52;;
70148;SDS011;57514;52.164;5.282;2022-09-30T11:45:13;2.67;;;1.55;;
70148;SDS011;57514;52.164;5.282;2022-09-30T11:48:11;3.00;;;1.60;;
70148;SDS011;57514;52.164;5.282;2022-09-30T11:50:42;5.03;;;1.88;;
70148;SDS011;57514;52.164;5.282;2022-09-30T11:56:07;4.47;;;1.60;;
70148;SDS011;57514;52.164;5.282;2022-09-30T11:58:56;3.53;;;1.65;;
70148;SDS011;57514;52.164;5.282;2022-09-30T12:03:55;2.92;;;1.70;;
70148;SDS011;57514;52.164;5.282;2022-09-30T12:09:03;4.50;;;2.08;;
70148;SDS011;57514;52.164;5.282;2022-09-30T12:11:59;4.88;;;1.92;;
70148;SDS011;57514;52.164;5.282;2022-09-30T12:14:40;3.42;;;1.98;;
70148;SDS011;57514;52.164;5.282;2022-09-30T12:20:23;5.20;;;1.95;;
70148;SDS011;57514;52.164;5.282;2022-09-30T12:23:40;5.63;;;1.98;;
70148;SDS011;57514;52.164;5.282;2022-09-30T12:25:58;5.10;;;1.60;;
70148;SDS011;57514;52.164;5.282;2022-09-30T12:41:01;4.57;;;1.67;;
70148;SDS011;57514;52.164;5.282;2022-09-30T12:46:42;5.03;;;2.33;;
70148;SDS011;57514;52.164;5.282;2022-09-30T12:49:26;3.92;;;2.00;;
70148;SDS011;57514;52.164;5.282;2022-09-30T12:54:26;7.40;;;2.80;;
70148;SDS011;57514;52.164;5.282;2022-09-30T12:56:58;4.80;;;2.25;;
70148;SDS011;57514;52.164;5.282;2022-09-30T12:59:29;4.35;;;2.00;;
70148;SDS011;57514;52.164;5.282;2022-09-30T13:02:20;6.45;;;2.42;;
70148;SDS011;57514;52.164;5.282;2022-09-30T13:04:53;5.03;;;2.67;;
70148;SDS011;57514;52.164;5.282;2022-09-30T13:07:21;8.32;;;2.90;;
70148;SDS011;57514;52.164;5.282;2022-09-30T13:09:55;6.68;;;2.97;;
70148;SDS011;57514;52.164;5.282;2022-09-30T13:12:28;4.95;;;2.10;;
70148;SDS011;57514;52.164;5.282;2022-09-30T13:15:52;7.93;;;3.17;;
70148;SDS011;57514;52.164;5.282;2022-09-30T13:17:54;6.20;;;2.67;;
70148;SDS011;57514;52.164;5.282;2022-09-30T13:31:28;5.45;;;2.38;;
70148;SDS011;57514;52.164;5.282;2022-09-30T13:34:20;4.97;;;2.25;;
70148;SDS011;57514;52.164;5.282;2022-09-30T13:47:29;5.28;;;1.98;;
70148;SDS011;57514;52.164;5.282;2022-09-30T13:50:12;3.45;;;1.48;;
70148;SDS011;57514;52.164;5.282;2022-09-30T13:53:00;5.07;;;2.30;;
70148;SDS011;57514;52.164;5.282;2022-09-30T13:55:32;5.63;;;2.20;;
70148;SDS011;57514;52.164;5.282;2022-09-30T14:04:32;4.63;;;1.67;;
70148;SDS011;57514;52.164;5.282;2022-09-30T14:15:10;1.38;;;1.00;;
70148;SDS011;57514;52.164;5.282;2022-09-30T14:21:04;5.03;;;1.98;;
70148;SDS011;57514;52.164;5.282;2022-09-30T14:23:55;5.10;;;1.80;;
70148;SDS011;57514;52.164;5.282;2022-09-30T14:26:38;4.45;;;2.05;;
70148;SDS011;57514;52.164;5.282;2022-09-30T14:29:20;6.90;;;2.53;;
70148;SDS011;57514;52.164;5.282;2022-09-30T14:32:04;5.57;;;2.30;;
70148;SDS011;57514;52.164;5.282;2022-09-30T14:37:03;3.45;;;1.83;;
70148;SDS011;57514;52.164;5.282;2022-09-30T14:39:31;11.63;;;2.25;;
70148;SDS011;57514;52.164;5.282;2022-09-30T14:41:59;4.20;;;1.75;;
70148;SDS011;57514;52.164;5.282;2022-09-30T14:44:31;7.13;;;2.40;;
70148;SDS011;57514;52.164;5.282;2022-09-30T14:47:01;4.18;;;2.20;;
70148;SDS011;57514;52.164;5.282;2022-09-30T14:49:32;4.85;;;2.10;;
70148;SDS011;57514;52.164;5.282;2022-09-30T14:52:01;6.90;;;2.25;;
70148;SDS011;57514;52.164;5.282;2022-09-30T14:54:30;4.40;;;2.30;;
70148;SDS011;57514;52.164;5.282;2022-09-30T14:56:59;7.00;;;2.80;;
70148;SDS011;57514;52.164;5.282;2022-09-30T14:59:31;5.53;;;2.35;;
70148;SDS011;57514;52.164;5.282;2022-09-30T15:02:01;6.75;;;2.78;;
70148;SDS011;57514;52.164;5.282;2022-09-30T15:04:39;7.25;;;3.05;;
70148;SDS011;57514;52.164;5.282;2022-09-30T15:07:12;5.63;;;2.65;;
70148;SDS011;57514;52.164;5.282;2022-09-30T15:09:40;6.78;;;2.95;;
70148;SDS011;57514;52.164;5.282;2022-09-30T15:17:16;6.95;;;3.28;;
70148;SDS011;57514;52.164;5.282;2022-09-30T15:19:48;5.63;;;2.28;;
70148;SDS011;57514;52.164;5.282;2022-09-30T15:22:16;4.68;;;2.45;;
70148;SDS011;57514;52.164;5.282;2022-09-30T15:24:45;6.28;;;2.90;;
70148;SDS011;57514;52.164;5.282;2022-09-30T15:27:15;5.55;;;2.28;;
70148;SDS011;57514;52.164;5.282;2022-09-30T15:32:22;5.72;;;2.55;;
70148;SDS011;57514;52.164;5.282;2022-09-30T15:34:50;6.97;;;3.30;;
70148;SDS011;57514;52.164;5.282;2022-09-30T15:37:27;7.05;;;2.88;;
70148;SDS011;57514;52.164;5.282;2022-09-30T15:39:59;5.57;;;3.05;;
70148;SDS011;57514;52.164;5.282;2022-09-30T15:45:26;6.30;;;2.90;;
70148;SDS011;57514;52.164;5.282;2022-09-30T15:48:31;7.43;;;3.15;;
70148;SDS011;57514;52.164;5.282;2022-09-30T15:50:58;6.18;;;3.05;;
70148;SDS011;57514;52.164;5.282;2022-09-30T15:56:16;7.05;;;3.42;;
70148;SDS011;57514;52.164;5.282;2022-09-30T15:59:03;8.60;;;3.45;;
70148;SDS011;57514;52.164;5.282;2022-09-30T16:01:32;8.55;;;3.78;;
70148;SDS011;57514;52.164;5.282;2022-09-30T16:06:44;7.53;;;3.50;;
70148;SDS011;57514;52.164;5.282;2022-09-30T16:09:22;7.10;;;3.05;;
70148;SDS011;57514;52.164;5.282;2022-09-30T16:14:27;8.88;;;3.38;;
70148;SDS011;57514;52.164;5.282;2022-09-30T16:16:57;10.15;;;3.90;;
70148;SDS011;57514;52.164;5.282;2022-09-30T16:19:26;9.50;;;3.53;;
70148;SDS011;57514;52.164;5.282;2022-09-30T16:21:54;9.30;;;3.58;;
70148;SDS011;57514;52.164;5.282;2022-09-30T16:26:49;10.45;;;3.97;;
70148;SDS011;57514;52.164;5.282;2022-09-30T16:29:17;7.70;;;3.58;;
70148;SDS011;57514;52.164;5.282;2022-09-30T16:31:44;5.70;;;3.08;;
70148;SDS011;57514;52.164;5.282;2022-09-30T16:34:31;6.22;;;3.38;;
70148;SDS011;57514;52.164;5.282;2022-09-30T16:37:02;7.80;;;3.67;;
70148;SDS011;57514;52.164;5.282;2022-09-30T16:39:31;7.88;;;2.80;;
70148;SDS011;57514;52.164;5.282;2022-09-30T16:41:58;8.88;;;3.63;;
70148;SDS011;57514;52.164;5.282;2022-09-30T16:44:25;9.52;;;3.80;;
70148;SDS011;57514;52.164;5.282;2022-09-30T16:46:55;9.93;;;4.28;;
70148;SDS011;57514;52.164;5.282;2022-09-30T16:49:22;7.20;;;3.83;;
70148;SDS011;57514;52.164;5.282;2022-09-30T16:51:49;9.38;;;4.00;;
70148;SDS011;57514;52.164;5.282;2022-09-30T16:54:16;8.27;;;4.00;;
70148;SDS011;57514;52.164;5.282;2022-09-30T16:56:43;7.93;;;3.35;;
70148;SDS011;57514;52.164;5.282;2022-09-30T16:59:14;8.27;;;3.30;;
70148;SDS011;57514;52.164;5.282;2022-09-30T17:01:42;9.18;;;4.03;;
70148;SDS011;57514;52.164;5.282;2022-09-30T17:04:09;8.07;;;3.58;;
70148;SDS011;57514;52.164;5.282;2022-09-30T17:06:42;9.23;;;3.83;;
70148;SDS011;57514;52.164;5.282;2022-09-30T17:09:09;8.45;;;4.22;;
70148;SDS011;57514;52.164;5.282;2022-09-30T17:11:36;6.38;;;3.33;;
70148;SDS011;57514;52.164;5.282;2022-09-30T17:14:05;9.02;;;3.80;;
70148;SDS011;57514;52.164;5.282;2022-09-30T17:16:32;7.95;;;3.95;;
70148;SDS011;57514;52.164;5.282;2022-09-30T17:19:01;11.15;;;4.40;;
70148;SDS011;57514;52.164;5.282;2022-09-30T17:21:29;6.80;;;3.13;;
70148;SDS011;57514;52.164;5.282;2022-09-30T17:23:57;8.57;;;3.38;;
70148;SDS011;57514;52.164;5.282;2022-09-30T17:26:24;9.48;;;4.25;;
70148;SDS011;57514;52.164;5.282;2022-09-30T17:28:51;9.38;;;4.25;;
70148;SDS011;57514;52.164;5.282;2022-09-30T17:31:39;8.70;;;3.72;;
70148;SDS011;57514;52.164;5.282;2022-09-30T17:34:06;11.80;;;4.35;;
70148;SDS011;57514;52.164;5.282;2022-09-30T17:36:52;9.48;;;4.32;;
70148;SDS011;57514;52.164;5.282;2022-09-30T17:39:24;8.23;;;3.85;;
70148;SDS011;57514;52.164;5.282;2022-09-30T17:41:51;8.45;;;4.13;;
70148;SDS011;57514;52.164;5.282;2022-09-30T17:44:37;7.93;;;4.18;;
70148;SDS011;57514;52.164;5.282;2022-09-30T17:47:04;8.88;;;4.50;;
70148;SDS011;57514;52.164;5.282;2022-09-30T17:49:32;10.35;;;4.50;;
70148;SDS011;57514;52.164;5.282;2022-09-30T17:52:00;7.75;;;3.35;;
70148;SDS011;57514;52.164;5.282;2022-09-30T17:54:28;11.45;;;4.15;;
70148;SDS011;57514;52.164;5.282;2022-09-30T17:56:56;6.50;;;3.22;;
70148;SDS011;57514;52.164;5.282;2022-09-30T17:59:24;8.93;;;4.30;;
70148;SDS011;57514;52.164;5.282;2022-09-30T18:01:52;7.32;;;3.88;;
70148;SDS011;57514;52.164;5.282;2022-09-30T18:04:21;10.13;;;3.97;;
70148;SDS011;57514;52.164;5.282;2022-09-30T18:06:52;8.30;;;3.85;;
70148;SDS011;57514;52.164;5.282;2022-09-30T18:09:19;5.78;;;2.67;;
70148;SDS011;57514;52.164;5.282;2022-09-30T18:11:47;8.52;;;3.88;;
70148;SDS011;57514;52.164;5.282;2022-09-30T18:14:14;8.20;;;4.00;;
70148;SDS011;57514;52.164;5.282;2022-09-30T18:16:41;10.05;;;3.88;;
70148;SDS011;57514;52.164;5.282;2022-09-30T18:19:09;8.68;;;4.05;;
70148;SDS011;57514;52.164;5.282;2022-09-30T18:21:37;7.30;;;3.50;;
70148;SDS011;57514;52.164;5.282;2022-09-30T18:24:05;6.88;;;3.47;;
70148;SDS011;57514;52.164;5.282;2022-09-30T18:26:32;7.25;;;3.67;;
70148;SDS011;57514;52.164;5.282;2022-09-30T18:29:01;9.20;;;3.85;;
70148;SDS011;57514;52.164;5.282;2022-09-30T18:31:28;8.50;;;4.13;;
70148;SDS011;57514;52.164;5.282;2022-09-30T18:34:03;6.40;;;3.08;;
70148;SDS011;57514;52.164;5.282;2022-09-30T18:36:31;9.60;;;4.32;;
70148;SDS011;57514;52.164;5.282;2022-09-30T18:38:59;8.60;;;4.15;;
70148;SDS011;57514;52.164;5.282;2022-09-30T18:41:27;7.95;;;3.60;;
70148;SDS011;57514;52.164;5.282;2022-09-30T18:43:57;10.10;;;4.03;;
70148;SDS011;57514;52.164;5.282;2022-09-30T18:46:30;8.90;;;3.78;;
70148;SDS011;57514;52.164;5.282;2022-09-30T18:48:58;13.00;;;4.45;;
70148;SDS011;57514;52.164;5.282;2022-09-30T18:51:25;8.98;;;4.20;;
70148;SDS011;57514;52.164;5.282;2022-09-30T18:54:17;10.43;;;3.63;;